Time;durP1;ratioP1;P1;durP2;ratioP2;P2;SDS_P1;SDS_P2;PMS_P1;PMS_P2;Temp;Humidity;BMP_temperature;BMP_pressure;BME280_temperature;BME280_humidity;BME280_pressure;Samples;Min_cycle;Max_cycle;Signal;HPM_P1;HPM_P2
2021/05/05 00:00:23;;;;;;;3.97;1.10;;;;;;;7.08;57.97;99496.22;4970286;28;20030;-47
2021/05/05 00:02:49;;;;;;;2.58;1.20;;;;;;;7.09;57.94;99494.47;4966157;28;20627;-47
2021/05/05 00:05:15;;;;;;;3.88;1.40;;;;;;;7.06;57.83;99492.78;4970206;28;20125;-47
2021/05/05 00:07:43;;;;;;;3.30;1.20;;;;;;;7.07;57.16;99497.09;4967166;28;20168;-47
2021/05/05 00:10:11;;;;;;;3.37;1.33;;;;;;;7.05;57.38;99497.97;4971584;28;20045;-47
2021/05/05 00:12:37;;;;;;;3.05;1.40;;;;;;;7.01;56.97;99497.16;4971022;28;20096;-47
2021/05/05 00:15:05;;;;;;;2.05;1.05;;;;;;;6.99;57.13;99488.50;4969673;28;20081;-47
2021/05/05 00:17:31;;;;;;;3.20;1.10;;;;;;;6.96;57.61;99498.94;4968676;28;20054;-48
2021/05/05 00:19:57;;;;;;;1.85;1.10;;;;;;;6.96;57.41;99491.13;4966928;28;20046;-47
2021/05/05 00:22:22;;;;;;;4.35;1.50;;;;;;;6.95;57.41;99494.59;4966998;28;20187;-48
2021/05/05 00:24:48;;;;;;;2.13;1.20;;;;;;;6.91;57.36;99480.78;4966230;28;20165;-48
2021/05/05 00:27:13;;;;;;;3.03;1.17;;;;;;;6.91;57.57;99486.00;4974251;28;20313;-47
2021/05/05 00:29:39;;;;;;;2.30;1.05;;;;;;;6.88;57.05;99485.13;4969878;28;20125;-50
2021/05/05 00:32:06;;;;;;;3.40;1.10;;;;;;;6.87;57.83;99483.41;4978935;28;20404;-48
2021/05/05 00:34:31;;;;;;;2.55;1.27;;;;;;;6.86;57.50;99490.34;4985920;28;20049;-48
2021/05/05 00:36:57;;;;;;;4.80;1.30;;;;;;;6.84;57.05;99488.63;4967165;28;20084;-47
2021/05/05 00:39:23;;;;;;;2.70;1.27;;;;;;;6.85;57.47;99486.03;4971177;28;20084;-48
2021/05/05 00:41:49;;;;;;;2.90;1.15;;;;;;;6.83;57.45;99498.19;4972104;28;20093;-48
2021/05/05 00:44:17;;;;;;;2.58;1.25;;;;;;;6.81;57.38;99489.53;4982829;28;20137;-47
2021/05/05 00:46:42;;;;;;;2.35;1.10;;;;;;;6.81;57.29;99479.13;4971234;28;20424;-47
2021/05/05 00:49:08;;;;;;;3.63;1.15;;;;;;;6.78;57.11;99494.75;4969935;28;20046;-47
2021/05/05 00:51:34;;;;;;;1.90;1.10;;;;;;;6.79;57.46;99486.94;4973387;28;20049;-47
2021/05/05 00:54:00;;;;;;;3.00;1.20;;;;;;;6.76;57.34;99484.38;4969439;28;20517;-47
2021/05/05 00:56:25;;;;;;;2.67;1.30;;;;;;;6.76;57.05;99491.31;4966615;28;20234;-49
2021/05/05 00:58:51;;;;;;;3.88;1.30;;;;;;;6.76;57.57;99486.13;4972242;28;20518;-47
2021/05/05 01:01:20;;;;;;;4.00;1.13;;;;;;;6.77;57.76;99485.22;4972385;28;20323;-48
2021/05/05 01:03:47;;;;;;;2.87;1.37;;;;;;;6.71;56.91;99488.72;4975286;28;20053;-51
2021/05/05 01:06:15;;;;;;;3.33;1.30;;;;;;;6.69;57.23;99484.41;4974012;28;20058;-47
2021/05/05 01:08:42;;;;;;;2.42;0.93;;;;;;;6.66;56.94;99490.53;4971568;28;20493;-47
2021/05/05 01:11:08;;;;;;;2.90;0.95;;;;;;;6.65;57.40;99483.59;4974351;28;20065;-47
2021/05/05 01:13:33;;;;;;;4.20;1.30;;;;;;;6.64;57.55;99477.53;4975995;28;20144;-47
2021/05/05 01:15:59;;;;;;;3.85;1.02;;;;;;;6.62;57.25;99483.63;4974013;28;20046;-47
2021/05/05 01:18:27;;;;;;;2.40;1.20;;;;;;;6.60;58.18;99475.81;4971696;28;20549;-47
2021/05/05 01:20:58;;;;;;;2.78;1.10;;;;;;;6.58;57.24;99480.19;4972334;28;20027;-47
2021/05/05 01:23:25;;;;;;;2.08;1.10;;;;;;;6.56;57.52;99475.88;4974299;28;20065;-47
2021/05/05 01:25:52;;;;;;;3.60;1.27;;;;;;;6.56;57.27;99473.28;4970638;28;20392;-48
2021/05/05 01:28:18;;;;;;;2.58;1.20;;;;;;;6.53;57.46;99471.56;4952418;28;20124;-49
2021/05/05 01:30:45;;;;;;;2.42;1.38;;;;;;;6.51;57.43;99477.63;4970021;28;20142;-48
2021/05/05 01:33:12;;;;;;;1.52;1.00;;;;;;;6.47;57.38;99471.63;4973442;28;20029;-48
2021/05/05 01:35:38;;;;;;;3.85;1.13;;;;;;;6.46;57.37;99462.09;4976062;28;20061;-47
2021/05/05 01:38:04;;;;;;;3.97;1.23;;;;;;;6.44;57.09;99469.91;4956945;28;20133;-49
2021/05/05 01:40:32;;;;;;;1.92;1.00;;;;;;;6.43;57.42;99464.72;4959329;28;20142;-49
2021/05/05 01:43:00;;;;;;;5.10;1.27;;;;;;;6.40;57.04;99468.19;4954181;28;20055;-49
2021/05/05 01:45:26;;;;;;;1.98;1.10;;;;;;;6.38;57.10;99461.28;4955182;28;20030;-48
2021/05/05 01:47:57;;;;;;;2.88;1.27;;;;;;;6.36;57.82;99463.06;4971257;28;20106;-47
2021/05/05 01:50:25;;;;;;;2.42;1.00;;;;;;;6.33;57.55;99455.25;4973628;28;20034;-48
2021/05/05 01:52:50;;;;;;;2.72;1.08;;;;;;;6.32;57.10;99462.19;4981985;28;20050;-47
2021/05/05 01:55:16;;;;;;;2.25;1.02;;;;;;;6.29;57.66;99462.22;4962920;28;20084;-49
2021/05/05 01:57:44;;;;;;;3.42;1.25;;;;;;;6.28;57.01;99457.91;4969197;28;20050;-48
2021/05/05 02:00:27;;;;;;;3.33;1.02;;;;;;;6.28;57.64;99465.69;4980598;28;20531;-48
2021/05/05 02:03:00;;;;;;;2.33;1.00;;;;;;;6.25;57.26;99473.50;4973441;28;20301;-47
2021/05/05 02:05:32;;;;;;;2.83;1.10;;;;;;;6.24;57.29;99472.63;4972689;28;20134;-47
2021/05/05 02:08:05;;;;;;;3.65;1.60;;;;;;;6.23;57.85;99470.03;4971310;28;20042;-47
2021/05/05 02:10:31;;;;;;;3.70;1.30;;;;;;;6.22;58.47;99476.97;4969879;28;20050;-46
2021/05/05 02:12:57;;;;;;;2.35;1.30;;;;;;;6.21;58.85;99466.59;4971427;28;20411;-51
2021/05/05 02:15:24;;;;;;;3.22;1.30;;;;;;;6.22;57.67;99470.94;4980859;28;20045;-48
2021/05/05 02:17:54;;;;;;;3.00;1.25;;;;;;;6.20;57.92;99460.53;4974240;28;20096;-47
2021/05/05 02:20:22;;;;;;;3.08;1.35;;;;;;;6.20;57.52;99470.06;4971214;28;20098;-47
2021/05/05 02:22:48;;;;;;;2.63;1.30;;;;;;;6.19;57.76;99463.13;4975491;28;20049;-48
2021/05/05 02:25:16;;;;;;;3.50;1.52;;;;;;;6.18;57.57;99466.63;4968695;28;20585;-48
2021/05/05 02:27:43;;;;;;;3.60;1.30;;;;;;;6.16;57.86;99470.94;4960826;28;20521;-47
2021/05/05 02:30:13;;;;;;;3.47;1.30;;;;;;;6.14;58.19;99464.03;4964527;28;20065;-46
2021/05/05 02:33:02;;;;;;;3.15;1.23;;;;;;;6.15;58.28;99475.28;4971560;28;21510;-48
2021/05/05 02:35:28;;;;;;;2.72;1.17;;;;;;;6.13;57.53;99469.22;4974368;28;20133;-47
2021/05/05 02:37:56;;;;;;;3.97;1.50;;;;;;;6.11;57.97;99465.78;4971887;28;20359;-48
2021/05/05 02:40:22;;;;;;;4.07;1.50;;;;;;;6.10;58.62;99471.84;4973600;28;20038;-47
2021/05/05 02:42:50;;;;;;;5.10;1.30;;;;;;;6.07;57.87;99475.31;4972292;28;20487;-49
2021/05/05 02:45:16;;;;;;;4.97;1.67;;;;;;;6.05;58.00;99471.88;4974805;28;20129;-47
2021/05/05 02:47:42;;;;;;;3.90;1.35;;;;;;;6.04;58.11;99470.16;4971240;28;20050;-48
2021/05/05 02:50:08;;;;;;;2.20;1.30;;;;;;;6.03;57.79;99468.41;4974244;28;20079;-48
2021/05/05 02:52:34;;;;;;;3.22;1.40;;;;;;;6.02;58.22;99468.44;4973389;28;20069;-48
2021/05/05 02:55:00;;;;;;;2.90;1.40;;;;;;;6.01;57.81;99471.88;4969126;28;20054;-47
2021/05/05 02:57:26;;;;;;;2.92;1.55;;;;;;;6.00;58.35;99475.38;4971700;28;20065;-48
2021/05/05 02:59:52;;;;;;;5.38;1.60;;;;;;;5.99;57.84;99473.66;4972365;28;20061;-49
2021/05/05 03:02:17;;;;;;;3.75;1.50;;;;;;;5.96;58.14;99475.34;4968121;28;20092;-47
2021/05/05 03:04:43;;;;;;;2.80;1.48;;;;;;;5.95;57.92;99471.03;4970060;28;20434;-47
2021/05/05 03:07:08;;;;;;;4.30;2.00;;;;;;;5.94;57.99;99479.69;4970122;28;20070;-47
2021/05/05 03:09:34;;;;;;;3.08;1.50;;;;;;;5.93;57.95;99471.91;4969597;28;20557;-48
2021/05/05 03:12:00;;;;;;;3.67;1.60;;;;;;;5.93;57.96;99477.09;4968428;28;20376;-48
2021/05/05 03:14:28;;;;;;;2.88;1.60;;;;;;;5.91;58.17;99477.09;4972834;28;20175;-47
2021/05/05 03:16:54;;;;;;;4.18;2.00;;;;;;;5.91;58.12;99482.28;4969050;28;20046;-47
2021/05/05 03:19:20;;;;;;;3.60;1.77;;;;;;;5.91;57.39;99492.69;4968251;28;20065;-47
2021/05/05 03:21:46;;;;;;;4.57;1.63;;;;;;;5.90;57.68;99482.31;4965727;28;20042;-47
2021/05/05 03:24:12;;;;;;;3.55;1.65;;;;;;;5.91;58.24;99484.00;4970676;28;20312;-47
2021/05/05 03:26:38;;;;;;;4.05;1.80;;;;;;;5.89;57.18;99489.22;4972348;28;20141;-47
2021/05/05 03:29:05;;;;;;;5.22;2.20;;;;;;;5.88;57.94;99484.88;4969334;28;20119;-48
2021/05/05 03:31:31;;;;;;;5.40;2.20;;;;;;;5.88;57.53;99484.88;4972046;28;20366;-48
2021/05/05 03:33:56;;;;;;;5.57;2.25;;;;;;;5.88;58.22;99489.22;4970727;28;20114;-47
2021/05/05 03:36:22;;;;;;;5.25;2.00;;;;;;;5.87;57.22;99496.16;4972776;28;20132;-48
2021/05/05 03:38:48;;;;;;;4.93;1.85;;;;;;;5.86;57.63;99489.22;4969647;28;20046;-47
2021/05/05 03:41:13;;;;;;;5.97;2.00;;;;;;;5.86;57.88;99496.16;4972215;28;20053;-47
2021/05/05 03:43:39;;;;;;;5.50;2.45;;;;;;;5.85;57.99;99486.66;4971072;28;20109;-48
2021/05/05 03:46:05;;;;;;;3.70;1.95;;;;;;;5.83;57.84;99491.84;4971328;28;20052;-47
2021/05/05 03:48:30;;;;;;;4.05;2.10;;;;;;;5.84;57.61;99493.53;4968905;28;20585;-49
2021/05/05 03:50:58;;;;;;;3.97;2.00;;;;;;;5.82;58.35;99500.47;4970763;28;20088;-48
2021/05/05 03:53:24;;;;;;;3.25;2.03;;;;;;;5.80;58.14;99489.25;4968648;28;20049;-48
2021/05/05 03:55:51;;;;;;;4.13;2.10;;;;;;;5.77;58.10;99492.72;4972707;28;20049;-48
2021/05/05 03:58:17;;;;;;;4.75;1.67;;;;;;;5.77;58.27;99492.72;4967512;28;20037;-47
2021/05/05 04:00:43;;;;;;;4.85;2.40;;;;;;;5.76;58.44;99493.59;4962804;28;20824;-47
2021/05/05 04:03:09;;;;;;;4.22;2.10;;;;;;;5.75;57.94;99494.44;4953007;28;20465;-48
2021/05/05 04:05:34;;;;;;;5.47;2.45;;;;;;;5.74;57.75;99490.13;4969900;28;20049;-47
2021/05/05 04:08:01;;;;;;;5.30;2.33;;;;;;;5.74;58.57;99494.47;4968487;28;20132;-48
2021/05/05 04:10:27;;;;;;;5.20;2.17;;;;;;;5.73;58.40;99493.63;4970214;28;20661;-48
2021/05/05 04:12:53;;;;;;;6.38;2.35;;;;;;;5.73;58.18;99495.31;4981171;28;20434;-47
2021/05/05 04:15:19;;;;;;;6.53;2.45;;;;;;;5.72;57.61;99497.06;4968324;28;20053;-47
2021/05/05 04:17:44;;;;;;;4.18;1.98;;;;;;;5.71;57.69;99500.53;4973272;28;21060;-48
2021/05/05 04:20:12;;;;;;;5.20;2.00;;;;;;;5.69;57.42;99502.28;4969989;28;20136;-47
2021/05/05 04:22:38;;;;;;;3.22;1.77;;;;;;;5.70;58.18;99501.38;4968381;28;20038;-47
2021/05/05 04:25:06;;;;;;;4.95;2.22;;;;;;;5.72;57.89;99503.97;4969251;28;21046;-47
2021/05/05 04:27:33;;;;;;;4.78;2.42;;;;;;;5.70;57.63;99501.38;4966975;28;20506;-47
2021/05/05 04:29:58;;;;;;;5.30;2.30;;;;;;;5.69;57.76;99503.97;4972106;28;20610;-47
2021/05/05 04:32:24;;;;;;;4.10;1.88;;;;;;;5.68;57.94;99516.09;4970656;28;20478;-48
2021/05/05 04:34:50;;;;;;;6.43;2.42;;;;;;;5.69;58.08;99515.25;4962332;28;20124;-48
2021/05/05 04:37:15;;;;;;;4.38;2.20;;;;;;;5.69;58.51;99517.81;4964472;28;20169;-47
2021/05/05 04:39:41;;;;;;;5.63;2.00;;;;;;;5.71;57.86;99523.00;4964178;28;20541;-48
2021/05/05 04:42:10;;;;;;;3.90;1.90;;;;;;;5.69;58.18;99520.44;4971771;28;20042;-47
2021/05/05 04:44:36;;;;;;;5.43;1.98;;;;;;;5.70;57.39;99524.72;4969530;28;20491;-47
2021/05/05 04:47:02;;;;;;;4.53;2.30;;;;;;;5.72;57.52;99535.09;4969108;28;20095;-47
2021/05/05 04:49:28;;;;;;;5.20;2.33;;;;;;;5.72;58.18;99532.50;4968907;28;20515;-48
2021/05/05 04:51:54;;;;;;;4.32;2.13;;;;;;;5.73;58.23;99539.41;4973392;28;20081;-47
2021/05/05 04:54:20;;;;;;;4.35;2.13;;;;;;;5.73;57.44;99536.81;4971714;28;20873;-47
2021/05/05 04:56:46;;;;;;;5.13;2.45;;;;;;;5.72;57.65;99538.56;4975083;28;20497;-48
2021/05/05 04:59:12;;;;;;;6.40;2.50;;;;;;;5.74;57.85;99541.16;4955930;28;20034;-47
2021/05/05 05:01:37;;;;;;;6.35;2.60;;;;;;;5.74;57.62;99538.56;4951817;28;20039;-47
2021/05/05 05:04:03;;;;;;;4.13;2.38;;;;;;;5.74;57.43;99538.56;4942380;28;20427;-48
2021/05/05 05:06:29;;;;;;;4.35;2.30;;;;;;;5.74;57.29;99538.56;4950483;28;20117;-47
2021/05/05 05:08:55;;;;;;;6.50;2.67;;;;;;;5.76;57.55;99549.75;4967947;28;20121;-48
2021/05/05 05:11:21;;;;;;;5.13;2.33;;;;;;;5.75;57.65;99545.47;4964352;28;20055;-48
2021/05/05 05:13:46;;;;;;;4.63;2.38;;;;;;;5.76;57.84;99555.84;4967572;28;20045;-48
2021/05/05 05:16:12;;;;;;;4.13;2.67;;;;;;;5.76;57.76;99552.34;4972687;28;20042;-47
2021/05/05 05:18:38;;;;;;;5.68;2.40;;;;;;;5.76;57.84;99554.94;4977001;28;20541;-46
2021/05/05 05:21:05;;;;;;;5.85;2.20;;;;;;;5.76;57.61;99555.84;4969944;28;20041;-48
2021/05/05 05:23:32;;;;;;;4.45;2.28;;;;;;;5.77;58.18;99557.56;4959918;28;20089;-48
2021/05/05 05:25:58;;;;;;;3.97;2.30;;;;;;;5.78;57.72;99561.88;4964876;28;20049;-47
2021/05/05 05:28:25;;;;;;;4.65;2.40;;;;;;;5.78;57.44;99569.66;4971771;28;20288;-48
2021/05/05 05:30:51;;;;;;;5.15;2.33;;;;;;;5.79;57.79;99567.94;4967532;28;20430;-47
2021/05/05 05:33:17;;;;;;;7.07;2.50;;;;;;;5.78;57.05;99569.66;4969667;28;20113;-47
2021/05/05 05:35:43;;;;;;;4.88;2.42;;;;;;;5.83;57.49;99579.16;4965799;28;20054;-49
2021/05/05 05:38:08;;;;;;;4.10;2.28;;;;;;;5.83;57.86;99576.56;4970807;28;20346;-47
2021/05/05 05:40:34;;;;;;;5.88;2.33;;;;;;;5.85;58.42;99570.50;4965446;28;20623;-49
2021/05/05 05:43:01;;;;;;;5.20;2.50;;;;;;;5.86;58.20;99576.56;4963922;28;20065;-48
2021/05/05 05:45:27;;;;;;;5.72;2.70;;;;;;;5.86;57.47;99568.78;4963985;28;20647;-47
2021/05/05 05:47:52;;;;;;;6.78;2.63;;;;;;;5.88;58.08;99572.22;4960072;28;21063;-47
2021/05/05 05:50:18;;;;;;;4.40;2.40;;;;;;;5.88;58.19;99570.47;4968317;28;20374;-48
2021/05/05 05:52:44;;;;;;;5.45;2.20;;;;;;;5.92;57.97;99571.34;4970610;28;20048;-49
2021/05/05 05:55:13;;;;;;;6.97;2.70;;;;;;;5.95;57.84;99571.31;4971804;28;20451;-48
2021/05/05 05:57:40;;;;;;;7.57;2.97;;;;;;;5.95;57.81;99573.91;4973753;28;20034;-47
2021/05/05 06:00:11;;;;;;;4.57;2.60;;;;;;;6.00;59.00;99571.38;4969678;28;20104;-47
2021/05/05 06:02:41;;;;;;;7.03;2.65;;;;;;;6.01;58.55;99576.53;4971085;28;20050;-47
2021/05/05 06:05:07;;;;;;;5.97;2.83;;;;;;;6.03;58.78;99582.56;4977559;28;20396;-49
2021/05/05 06:07:33;;;;;;;5.72;2.90;;;;;;;6.05;58.80;99570.47;4969005;28;20322;-47
2021/05/05 06:09:59;;;;;;;5.40;2.80;;;;;;;6.07;58.58;99580.84;4963432;28;20042;-51
2021/05/05 06:12:25;;;;;;;7.18;3.00;;;;;;;6.09;58.28;99577.38;4970805;28;20046;-48
2021/05/05 06:14:51;;;;;;;5.30;3.00;;;;;;;6.11;59.23;99586.00;4969044;28;20037;-48
2021/05/05 06:17:18;;;;;;;7.00;3.00;;;;;;;6.12;58.88;99587.75;4969351;28;20034;-47
2021/05/05 06:19:44;;;;;;;5.72;3.40;;;;;;;6.14;58.36;99580.78;4969875;28;20035;-47
2021/05/05 06:22:10;;;;;;;5.88;2.83;;;;;;;6.18;58.49;99579.06;4970029;28;20513;-47
2021/05/05 06:24:36;;;;;;;8.75;2.80;;;;;;;6.21;59.48;99586.81;4971453;28;20084;-47
2021/05/05 06:27:02;;;;;;;5.25;2.88;;;;;;;6.25;59.41;99582.50;4976305;28;20129;-47
2021/05/05 06:29:27;;;;;;;6.57;3.20;;;;;;;6.26;58.84;99576.44;4952975;28;20057;-49
2021/05/05 06:31:53;;;;;;;6.38;3.15;;;;;;;6.29;59.22;99577.28;4960689;28;20042;-47
2021/05/05 06:34:20;;;;;;;7.05;3.35;;;;;;;6.32;59.22;99581.59;4970679;28;20728;-47
2021/05/05 06:36:45;;;;;;;6.13;3.30;;;;;;;6.34;59.33;99581.59;4969961;28;20100;-47
2021/05/05 06:39:11;;;;;;;7.47;3.15;;;;;;;6.39;59.17;99596.25;4971450;28;20084;-48
2021/05/05 06:41:39;;;;;;;8.88;3.28;;;;;;;6.42;59.27;99595.38;4970899;28;20510;-47
2021/05/05 06:44:06;;;;;;;8.45;3.35;;;;;;;6.43;59.45;99595.38;4969181;28;20113;-48
2021/05/05 06:46:33;;;;;;;7.63;3.28;;;;;;;6.47;58.96;99597.09;4966054;28;20341;-48
2021/05/05 06:48:59;;;;;;;7.97;3.83;;;;;;;6.51;59.51;99597.06;4970608;28;21164;-48
2021/05/05 06:51:26;;;;;;;7.13;3.58;;;;;;;6.52;60.08;99607.47;4968992;28;20041;-49
2021/05/05 06:53:51;;;;;;;6.38;3.83;;;;;;;6.54;60.80;99600.53;4949830;28;20069;-47
2021/05/05 06:56:17;;;;;;;6.20;3.33;;;;;;;6.56;59.52;99600.50;4946845;28;20434;-50
2021/05/05 06:58:43;;;;;;;7.72;3.80;;;;;;;6.58;59.80;99598.78;4956866;28;20135;-47
2021/05/05 07:01:12;;;;;;;6.55;3.70;;;;;;;6.60;59.80;99607.41;4969546;28;20045;-49
2021/05/05 07:03:38;;;;;;;6.72;3.50;;;;;;;6.63;59.30;99615.19;4969611;28;20050;-52
2021/05/05 07:06:04;;;;;;;8.27;3.63;;;;;;;6.65;59.89;99603.91;4968722;28;20476;-48
2021/05/05 07:08:29;;;;;;;6.45;3.63;;;;;;;6.68;60.05;99613.44;4968157;28;20058;-47
2021/05/05 07:10:55;;;;;;;6.00;3.65;;;;;;;6.70;59.95;99601.31;4979397;28;20188;-47
2021/05/05 07:13:21;;;;;;;7.63;3.63;;;;;;;6.74;59.58;99603.03;4968933;28;20042;-47
2021/05/05 07:15:47;;;;;;;7.53;3.47;;;;;;;6.78;59.35;99601.25;4968892;28;20422;-47
2021/05/05 07:18:13;;;;;;;7.40;4.07;;;;;;;6.82;59.57;99621.13;4973119;28;20069;-50
2021/05/05 07:20:39;;;;;;;6.53;3.70;;;;;;;6.86;59.82;99619.41;4967354;28;20153;-48
2021/05/05 07:23:05;;;;;;;6.03;3.33;;;;;;;6.86;60.06;99611.59;4965423;28;20084;-49
2021/05/05 07:25:31;;;;;;;6.82;3.60;;;;;;;6.90;60.39;99623.72;4957175;28;20550;-47
2021/05/05 07:27:58;;;;;;;6.55;3.22;;;;;;;6.93;60.16;99628.88;4972956;28;20061;-49
2021/05/05 07:30:25;;;;;;;6.05;3.65;;;;;;;6.95;59.99;99619.31;4966823;28;20089;-48
2021/05/05 07:32:51;;;;;;;5.82;3.30;;;;;;;6.99;59.89;99619.31;4968740;28;20034;-48
2021/05/05 07:35:18;;;;;;;5.95;3.25;;;;;;;6.99;59.99;99627.09;4966812;28;20502;-47
2021/05/05 07:45:55;;;;;;;6.85;2.92;;;;;;;7.05;60.21;99644.38;4969335;28;20128;-50
2021/05/05 07:48:30;;;;;;;6.38;3.38;;;;;;;7.07;59.66;99646.97;4969588;28;20034;-49
2021/05/05 07:50:57;;;;;;;6.85;2.88;;;;;;;7.05;59.77;99653.91;4967842;28;20868;-48
2021/05/05 07:53:23;;;;;;;6.82;3.58;;;;;;;7.04;59.69;99652.19;4965641;28;20384;-47
2021/05/05 07:55:51;;;;;;;4.80;3.20;;;;;;;7.04;59.70;99647.00;4972125;28;21451;-50
2021/05/05 07:58:17;;;;;;;5.72;3.08;;;;;;;7.03;59.70;99656.50;4968869;28;20080;-47
2021/05/05 08:00:43;;;;;;;7.05;3.25;;;;;;;7.02;59.56;99653.94;4963380;28;20513;-47
2021/05/05 08:03:10;;;;;;;5.95;3.22;;;;;;;7.02;59.43;99652.22;4969105;28;20033;-47
2021/05/05 08:05:35;;;;;;;5.35;3.10;;;;;;;7.00;59.34;99669.53;4966347;28;20051;-49
2021/05/05 08:08:03;;;;;;;5.72;2.70;;;;;;;7.01;59.65;99696.41;4965470;28;20113;-48
2021/05/05 08:10:29;;;;;;;5.50;2.95;;;;;;;6.97;59.93;99679.94;4966609;28;20034;-47
2021/05/05 08:12:55;;;;;;;4.90;2.85;;;;;;;6.96;59.77;99684.28;4966554;28;20054;-49
2021/05/05 08:15:21;;;;;;;4.40;2.60;;;;;;;6.94;60.32;99691.22;4971158;28;20519;-48
2021/05/05 08:17:47;;;;;;;5.53;3.10;;;;;;;6.94;60.23;99699.00;4965203;28;20565;-48
2021/05/05 08:20:14;;;;;;;4.53;3.05;;;;;;;6.93;60.14;99707.69;4968887;28;20125;-47
2021/05/05 08:22:40;;;;;;;6.10;2.97;;;;;;;6.94;59.90;99701.63;4965585;28;20053;-47
2021/05/05 08:25:06;;;;;;;6.15;3.00;;;;;;;6.94;60.57;99705.97;4966863;28;20073;-48
2021/05/05 08:27:32;;;;;;;4.72;2.40;;;;;;;6.91;60.65;99712.03;4961490;28;20037;-48
2021/05/05 08:29:58;;;;;;;4.18;2.58;;;;;;;6.94;60.40;99713.75;4967864;28;20041;-48
2021/05/05 08:32:24;;;;;;;4.55;2.65;;;;;;;6.93;60.84;99723.25;4962558;28;20513;-48
2021/05/05 08:34:49;;;;;;;5.10;2.35;;;;;;;6.93;61.19;99722.41;4964095;28;20046;-49
2021/05/05 08:37:16;;;;;;;3.80;2.25;;;;;;;6.93;60.81;99733.66;4968499;28;20457;-48
2021/05/05 08:39:42;;;;;;;4.38;2.33;;;;;;;6.93;60.77;99728.47;4970967;28;20065;-47
2021/05/05 08:42:08;;;;;;;5.18;2.75;;;;;;;6.95;60.77;99736.25;4980214;28;20058;-47
2021/05/05 08:44:35;;;;;;;5.40;2.40;;;;;;;6.98;61.03;99741.44;4965295;28;20204;-48
2021/05/05 08:47:01;;;;;;;4.55;2.33;;;;;;;7.03;61.20;99744.88;4971469;28;20078;-47
2021/05/05 08:49:28;;;;;;;5.25;2.15;;;;;;;7.04;60.83;99751.81;4966915;28;20050;-47
2021/05/05 08:51:54;;;;;;;3.97;2.00;;;;;;;7.08;60.66;99742.25;4965232;28;20049;-48
2021/05/05 08:54:20;;;;;;;6.22;1.92;;;;;;;7.09;60.40;99739.66;4967779;28;20030;-48
2021/05/05 08:56:46;;;;;;;4.40;2.28;;;;;;;7.11;60.55;99742.25;4965088;28;20564;-47
2021/05/05 08:59:13;;;;;;;5.35;1.90;;;;;;;7.14;60.31;99748.31;4965486;28;20499;-51
2021/05/05 09:01:41;;;;;;;3.92;1.95;;;;;;;7.16;60.35;99736.13;4964420;28;20042;-48
2021/05/05 09:04:07;;;;;;;3.08;1.83;;;;;;;7.20;60.02;99738.72;4970143;28;20045;-47
2021/05/05 09:06:46;;;;;;;4.00;1.92;;;;;;;7.22;60.05;99740.44;4964214;28;20238;-48
2021/05/05 09:09:30;;;;;;;4.35;1.77;;;;;;;7.27;59.64;99749.09;4971678;28;20042;-47
2021/05/05 09:11:56;;;;;;;4.10;1.73;;;;;;;7.31;59.44;99750.78;4969239;28;21806;-48
2021/05/05 09:14:22;;;;;;;3.10;1.58;;;;;;;7.41;59.30;99755.94;4969327;28;20049;-48
2021/05/05 09:16:48;;;;;;;3.70;1.90;;;;;;;7.49;59.87;99756.72;4967712;28;20061;-48
2021/05/05 09:19:14;;;;;;;3.47;1.67;;;;;;;7.59;59.41;99749.75;4965541;28;20054;-47
2021/05/05 09:21:39;;;;;;;4.63;2.00;;;;;;;7.69;59.01;99751.41;4966857;28;20042;-48
2021/05/05 09:24:18;;;;;;;4.43;1.90;;;;;;;7.80;58.96;99751.31;4975566;28;20060;-49
2021/05/05 09:26:45;;;;;;;5.10;2.20;;;;;;;7.90;59.18;99765.13;4974196;28;20137;-49
2021/05/05 09:29:11;;;;;;;4.72;2.00;;;;;;;7.99;58.26;99759.84;4972805;28;20042;-50
2021/05/05 09:31:40;;;;;;;3.42;1.90;;;;;;;8.09;58.42;99771.03;4976440;28;20045;-49
2021/05/05 09:34:11;;;;;;;4.22;2.00;;;;;;;8.15;58.59;99760.56;4970162;28;20484;-49
2021/05/05 09:36:55;;;;;;;3.35;1.63;;;;;;;8.23;58.00;99773.53;4953564;28;20105;-48
2021/05/05 09:39:27;;;;;;;4.97;1.90;;;;;;;8.30;57.80;99772.56;4971617;28;20100;-49
2021/05/05 09:41:52;;;;;;;4.20;1.90;;;;;;;8.36;57.39;99767.28;4970036;28;20758;-48
2021/05/05 09:44:18;;;;;;;4.10;1.70;;;;;;;8.44;57.74;99781.09;4968689;28;20034;-48
2021/05/05 09:46:46;;;;;;;3.42;1.70;;;;;;;8.51;56.96;99780.22;4976120;28;20439;-47
2021/05/05 09:49:30;;;;;;;5.18;2.22;;;;;;;8.57;56.81;99771.47;4972173;28;20151;-48
2021/05/05 09:52:02;;;;;;;5.93;2.55;;;;;;;8.64;57.00;99770.50;4968064;28;20069;-48
2021/05/05 09:54:30;;;;;;;5.05;2.17;;;;;;;8.74;56.62;99781.69;4970990;28;20048;-48
2021/05/05 09:57:34;;;;;;;4.88;2.20;;;;;;;8.86;56.40;99786.75;4974287;28;20129;-48
2021/05/05 10:00:03;;;;;;;5.88;2.38;;;;;;;8.97;56.33;99785.75;4967447;28;20385;-47
2021/05/05 10:02:45;;;;;;;4.97;2.00;;;;;;;9.07;55.83;99792.59;4968482;28;20058;-47
2021/05/05 10:05:17;;;;;;;4.78;2.15;;;;;;;9.15;55.55;99792.50;4966710;28;20046;-49
2021/05/05 10:08:03;;;;;;;6.00;2.58;;;;;;;9.23;55.13;99813.25;4966518;28;20046;-47
2021/05/05 10:10:42;;;;;;;4.25;2.33;;;;;;;9.26;55.35;99805.41;4968022;28;20038;-48
2021/05/05 10:13:10;;;;;;;8.40;2.65;;;;;;;9.30;54.43;99807.09;4967531;28;20042;-47
2021/05/05 10:15:39;;;;;;;5.27;2.67;;;;;;;9.34;54.50;99808.75;4972144;28;20042;-48
2021/05/05 10:18:08;;;;;;;;;;;;;;;9.38;54.69;99810.44;4970363;28;20447;-48
2021/05/05 10:20:34;;;;;;;4.10;1.90;;;;;;;9.43;55.03;99813.88;4955013;28;20004;-48
2021/05/05 10:23:01;;;;;;;5.32;2.92;;;;;;;9.48;54.16;99816.41;4963203;28;20088;-47
2021/05/05 10:25:28;;;;;;;6.63;3.03;;;;;;;9.51;53.91;99827.66;4967250;28;20049;-47
2021/05/05 10:27:55;;;;;;;5.53;2.65;;;;;;;9.56;54.24;99830.22;4975957;28;20257;-47
2021/05/05 10:30:30;;;;;;;5.00;2.63;;;;;;;9.61;53.65;99836.22;4972770;28;20136;-48
2021/05/05 10:32:57;;;;;;;4.97;2.75;;;;;;;9.67;53.41;99827.44;4969543;28;20381;-49
2021/05/05 10:35:23;;;;;;;6.20;2.75;;;;;;;9.73;53.62;99821.28;4969860;28;20061;-49
2021/05/05 10:37:56;;;;;;;3.83;2.50;;;;;;;9.82;53.64;99828.97;4969624;28;20121;-49
2021/05/05 10:40:25;;;;;;;9.63;2.72;;;;;;;9.91;53.68;99827.97;4968144;28;20455;-47
2021/05/05 10:42:57;;;;;;;5.82;2.80;;;;;;;10.03;53.81;99835.59;4967029;28;20053;-48
2021/05/05 10:45:27;;;;;;;6.25;2.72;;;;;;;10.16;53.29;99844.97;4959665;28;20153;-49
2021/05/05 10:48:15;;;;;;;4.38;2.72;;;;;;;10.27;52.83;99847.41;4969218;28;20476;-48
2021/05/05 10:50:59;;;;;;;5.65;3.38;;;;;;;10.37;52.62;99869.03;4967770;28;20211;-48
2021/05/05 10:53:50;;;;;;;4.75;2.78;;;;;;;10.45;52.00;99868.91;4970182;28;20050;-47
2021/05/05 10:56:30;;;;;;;5.30;2.72;;;;;;;10.50;52.62;99873.19;4965716;28;20081;-47
2021/05/05 10:59:07;;;;;;;5.25;2.60;;;;;;;10.52;52.25;99871.41;4968703;28;20494;-50
2021/05/05 11:01:38;;;;;;;4.80;2.63;;;;;;;10.54;52.28;99882.69;4971858;28;20168;-49
2021/05/05 11:04:06;;;;;;;6.93;3.17;;;;;;;10.56;52.59;99904.44;4943752;28;20049;-50
2021/05/05 11:06:36;;;;;;;6.55;2.65;;;;;;;10.60;51.77;99883.47;4968269;28;20061;-50
2021/05/05 11:09:15;;;;;;;5.50;2.72;;;;;;;10.63;52.40;99896.50;4967702;28;20077;-48
2021/05/05 11:11:49;;;;;;;5.85;2.88;;;;;;;10.64;51.71;99893.00;4968384;28;20049;-49
2021/05/05 11:14:24;;;;;;;5.15;2.47;;;;;;;10.65;51.27;99886.88;4967380;28;20069;-50
2021/05/05 11:16:59;;;;;;;5.30;2.58;;;;;;;10.68;51.93;99892.06;4963029;28;20050;-48
2021/05/05 11:19:37;;;;;;;4.68;2.50;;;;;;;10.70;50.90;99890.25;4957814;28;20054;-50
2021/05/05 11:22:18;;;;;;;5.22;2.50;;;;;;;10.75;51.53;99898.88;4967284;28;20136;-49
2021/05/05 11:24:49;;;;;;;4.07;2.40;;;;;;;10.81;51.66;99892.69;4967794;28;20102;-49
2021/05/05 11:27:17;;;;;;;5.93;2.40;;;;;;;10.87;51.28;99901.28;4975481;28;20327;-48
2021/05/05 11:29:49;;;;;;;6.00;2.40;;;;;;;10.94;50.48;99903.78;4971357;28;20045;-46
2021/05/05 11:32:18;;;;;;;4.20;2.28;;;;;;;10.98;50.55;99902.81;4955751;28;20124;-49
2021/05/05 11:34:45;;;;;;;6.07;2.38;;;;;;;11.01;49.58;99921.09;4958562;28;20410;-47
2021/05/05 11:37:24;;;;;;;5.07;2.13;;;;;;;11.03;50.10;99917.53;4960910;28;20273;-48
2021/05/05 11:40:03;;;;;;;5.35;2.42;;;;;;;11.10;49.79;99915.69;4967784;28;20042;-46
2021/05/05 11:42:36;;;;;;;6.82;2.30;;;;;;;11.17;49.67;99922.53;4974028;28;20053;-47
2021/05/05 11:45:05;;;;;;;4.82;2.00;;;;;;;11.25;49.93;99919.75;4968767;28;20530;-47
2021/05/05 11:47:37;;;;;;;4.60;2.80;;;;;;;11.34;49.53;99921.31;4970086;28;20183;-47
2021/05/05 11:50:20;;;;;;;3.42;1.83;;;;;;;11.41;48.92;99929.03;4968424;28;20139;-47
2021/05/05 11:53:02;;;;;;;4.65;2.28;;;;;;;11.47;49.15;99928.03;4964204;28;20050;-47